Time;durP1;ratioP1;P1;durP2;ratioP2;P2;SDS_P1;SDS_P2;PMS_P1;PMS_P2;Temp;Humidity;BMP_temperature;BMP_pressure;BME280_temperature;BME280_humidity;BME280_pressure;Samples;Min_cycle;Max_cycle;Signal;HPM_P1;HPM_P2
2023/07/07 00:01:07;;;;;;;9.13;4.97;;;;;;;21.60;76.06;100057.87;124332;1102;104242;-78
2023/07/07 00:03:49;;;;;;;9.33;5.00;;;;;;;21.59;75.96;100069.48;124361;1102;101977;-77
2023/07/07 00:06:21;;;;;;;9.77;5.50;;;;;;;21.57;75.97;100069.52;124433;1102;104176;-78
2023/07/07 00:08:55;;;;;;;9.63;5.27;;;;;;;21.53;76.28;100070.45;124526;1102;104185;-78
2023/07/07 00:11:26;;;;;;;12.88;5.50;;;;;;;21.51;75.57;100072.28;124400;1102;104086;-79
2023/07/07 00:13:57;;;;;;;9.73;5.17;;;;;;;21.47;75.97;100074.09;124475;1102;101941;-78
2023/07/07 00:16:28;;;;;;;10.03;6.10;;;;;;;21.45;76.88;100070.55;124344;1102;104355;-76
2023/07/07 00:19:02;;;;;;;9.77;5.87;;;;;;;21.41;76.14;100078.63;124432;1102;104261;-77
2023/07/07 00:21:32;;;;;;;;;;;;;;;21.35;76.08;100080.49;124433;1102;104249;-77
2023/07/07 00:24:04;;;;;;;11.93;6.43;;;;;;;21.33;76.94;100092.08;124446;1102;104176;-77
2023/07/07 00:26:35;;;;;;;12.87;6.23;;;;;;;21.34;76.55;100088.52;124401;1102;102400;-78
2023/07/07 00:29:08;;;;;;;14.33;6.50;;;;;;;21.32;76.40;100083.20;124454;1102;101961;-77
2023/07/07 00:31:39;;;;;;;12.00;6.90;;;;;;;21.30;77.05;100087.70;124455;1102;104456;-78
2023/07/07 00:34:10;;;;;;;18.23;7.20;;;;;;;21.28;77.44;100096.62;124391;1102;104179;-77
2023/07/07 00:36:42;;;;;;;13.03;6.43;;;;;;;21.29;76.77;100103.73;124507;1102;104204;-77
2023/07/07 00:39:13;;;;;;;12.33;6.30;;;;;;;21.26;77.33;100103.77;124378;1102;102294;-78
2023/07/07 00:41:44;;;;;;;11.23;6.77;;;;;;;21.22;77.57;100100.24;124398;1101;104371;-77
2023/07/07 00:44:15;;;;;;;13.50;6.63;;;;;;;21.16;78.11;100098.56;124467;1102;104175;-78
2023/07/07 00:46:47;;;;;;;14.20;7.40;;;;;;;21.16;77.78;100093.23;124399;1101;104248;-77
2023/07/07 00:49:23;;;;;;;15.63;7.10;;;;;;;21.14;78.66;100094.14;124465;1102;102019;-78
2023/07/07 00:52:00;;;;;;;19.10;7.80;;;;;;;21.11;79.19;100092.39;124425;1101;102498;-77
2023/07/07 00:54:36;;;;;;;14.43;7.67;;;;;;;21.07;77.88;100097.83;124410;1102;104230;-77
2023/07/07 00:57:08;;;;;;;13.07;7.73;;;;;;;21.00;78.92;100105.91;124436;1102;104204;-77
2023/07/07 00:59:43;;;;;;;14.93;7.53;;;;;;;20.95;79.09;100106.86;124429;1101;104226;-77
2023/07/07 01:02:20;;;;;;;14.00;7.50;;;;;;;20.93;79.29;100111.34;124475;1102;101891;-77
2023/07/07 01:04:52;;;;;;;17.50;7.67;;;;;;;20.90;78.71;100114.92;124399;1102;101968;-77
2023/07/07 01:07:29;;;;;;;14.33;7.43;;;;;;;20.91;78.81;100119.36;124386;1102;102021;-77
2023/07/07 01:10:01;;;;;;;14.55;6.70;;;;;;;20.88;80.61;100115.83;124351;1102;104108;-77
2023/07/07 01:12:32;;;;;;;11.43;6.80;;;;;;;20.83;79.52;100119.45;124404;1102;104245;-77
2023/07/07 01:15:04;;;;;;;12.03;6.13;;;;;;;20.85;80.11;100115.87;124442;1102;104245;-77
2023/07/07 01:17:46;;;;;;;12.57;6.50;;;;;;;20.82;80.66;100123.02;124255;1102;101983;-77
2023/07/07 01:20:30;;;;;;;13.07;6.50;;;;;;;20.78;80.11;100112.41;124340;1102;104274;-77
2023/07/07 01:26:26;;;;;;;11.85;6.78;;;;;;;20.95;82.75;100098.86;124399;1102;102073;-76
2023/07/07 01:29:22;;;;;;;15.00;6.80;;;;;;;20.81;81.77;100105.23;124215;1102;104201;-77
2023/07/07 01:31:58;;;;;;;10.63;6.23;;;;;;;20.76;81.87;100104.42;124241;1102;104198;-77
2023/07/07 01:34:30;;;;;;;12.77;6.43;;;;;;;20.77;82.04;100110.63;124249;1102;104249;-76
2023/07/07 01:37:01;;;;;;;11.53;6.20;;;;;;;20.77;81.47;100114.20;124188;1105;104452;-76
2023/07/07 01:39:33;;;;;;;11.33;6.10;;;;;;;20.75;82.48;100110.65;124193;1102;104220;-76
2023/07/07 01:42:10;;;;;;;11.15;6.53;;;;;;;20.72;83.00;100102.69;124225;1102;101913;-76
2023/07/07 01:44:51;;;;;;;10.77;6.27;;;;;;;20.70;82.29;100104.50;124218;1105;104359;-76
2023/07/07 01:47:28;;;;;;;11.17;6.33;;;;;;;20.67;82.57;100104.54;124206;1102;101961;-76
2023/07/07 01:50:05;;;;;;;12.40;6.57;;;;;;;20.65;82.73;100101.89;124205;1102;104325;-78
2023/07/07 01:52:40;;;;;;;12.20;6.00;;;;;;;20.63;82.78;100100.09;124393;1102;104242;-75
2023/07/07 01:55:19;;;;;;;11.27;6.17;;;;;;;20.60;83.40;100102.80;124322;1102;104131;-77
2023/07/07 01:57:55;;;;;;;12.33;6.20;;;;;;;20.59;84.45;100088.60;124266;1104;104300;-75
2023/07/07 02:00:30;;;;;;;11.77;6.40;;;;;;;20.56;84.14;100095.77;124389;1102;104153;-76
2023/07/07 02:03:07;;;;;;;14.90;7.07;;;;;;;20.56;83.93;100101.96;124489;1102;104373;-76
2023/07/07 02:05:39;;;;;;;12.37;7.17;;;;;;;20.55;84.39;100099.31;124572;1102;104175;-76
2023/07/07 02:08:12;;;;;;;13.48;6.67;;;;;;;20.55;84.54;100100.19;124246;1102;101867;-76
2023/07/07 02:10:43;;;;;;;13.80;6.47;;;;;;;20.53;83.62;100101.13;124317;1102;104268;-75
2023/07/07 02:13:15;;;;;;;10.43;6.77;;;;;;;20.51;84.73;100092.28;124271;1103;104191;-79
2023/07/07 02:15:46;;;;;;;12.03;6.53;;;;;;;20.50;84.52;100096.70;124325;1102;101903;-77
2023/07/07 02:18:17;;;;;;;10.27;6.67;;;;;;;20.53;85.40;100098.46;124214;1102;104232;-76
2023/07/07 02:20:48;;;;;;;13.30;7.37;;;;;;;20.51;84.48;100095.81;124302;1102;104281;-76
2023/07/07 02:23:20;;;;;;;11.07;6.70;;;;;;;20.51;85.05;100100.27;124181;1102;104737;-76
2023/07/07 02:25:51;;;;;;;15.57;7.70;;;;;;;20.48;84.08;100096.72;124399;1102;104316;-76
2023/07/07 02:28:22;;;;;;;11.97;6.70;;;;;;;20.50;85.10;100103.83;124213;1102;102578;-75
2023/07/07 02:30:54;;;;;;;12.25;6.95;;;;;;;20.49;85.48;100105.63;124179;1102;104211;-77
2023/07/07 02:33:31;;;;;;;;;;;;;;;20.47;84.99;100102.97;124186;1102;104623;-76
2023/07/07 02:36:06;;;;;;;14.80;7.17;;;;;;;20.47;85.68;100110.06;124290;1102;104173;-76
2023/07/07 02:38:38;;;;;;;12.07;7.33;;;;;;;20.49;85.98;100102.95;124159;1102;101974;-75
2023/07/07 02:41:09;;;;;;;13.13;6.97;;;;;;;20.51;86.30;100100.27;124325;1102;104172;-75
2023/07/07 02:43:41;;;;;;;13.43;7.70;;;;;;;20.53;85.33;100111.78;124251;1102;104194;-75
2023/07/07 02:46:12;;;;;;;16.10;7.60;;;;;;;20.53;86.33;100106.45;124110;1102;101923;-76
2023/07/07 02:48:44;;;;;;;16.20;7.40;;;;;;;20.55;85.94;100099.31;124093;1104;104175;-76
2023/07/07 02:51:16;;;;;;;12.90;7.53;;;;;;;20.60;86.09;100097.47;124122;1102;104220;-75
2023/07/07 02:53:47;;;;;;;14.63;7.50;;;;;;;20.66;86.72;100102.76;124318;1102;102064;-75
2023/07/07 02:56:18;;;;;;;15.23;7.90;;;;;;;20.67;86.55;100101.87;124314;1102;104190;-76
2023/07/07 02:58:50;;;;;;;15.10;7.50;;;;;;;20.71;86.69;100102.70;124124;1102;101834;-75
2023/07/07 03:01:23;;;;;;;14.73;8.03;;;;;;;20.71;86.53;100100.95;124236;1102;104245;-77
2023/07/07 03:03:56;;;;;;;;;;;;;;;20.73;86.56;100101.80;124345;1102;102022;-76
2023/07/07 03:06:28;;;;;;;15.80;8.33;;;;;;;20.75;86.19;100104.45;124210;1102;104227;-76
2023/07/07 03:08:59;;;;;;;18.03;8.33;;;;;;;20.78;87.79;100096.41;124275;1102;104192;-77
2023/07/07 03:11:31;;;;;;;16.73;8.23;;;;;;;20.78;87.01;100102.61;124193;1102;104291;-77
2023/07/07 03:14:02;;;;;;;15.07;7.93;;;;;;;20.82;87.13;100093.69;124436;1102;104309;-77
2023/07/07 03:16:36;;;;;;;15.53;8.27;;;;;;;20.87;86.90;100093.63;124276;1102;104312;-76
2023/07/07 03:19:10;;;;;;;15.30;8.55;;;;;;;20.91;86.75;100091.79;124214;1105;104258;-77
2023/07/07 03:21:49;;;;;;;14.90;8.23;;;;;;;20.93;86.45;100082.88;124252;1105;104354;-77
2023/07/07 03:24:28;;;;;;;15.00;8.13;;;;;;;20.98;87.11;100077.48;124160;1103;101923;-76
2023/07/07 03:27:01;;;;;;;16.93;8.90;;;;;;;20.99;87.21;100084.59;124268;1106;104193;-77
2023/07/07 03:29:35;;;;;;;13.37;7.63;;;;;;;21.04;86.29;100087.20;124257;1105;104239;-77
2023/07/07 03:32:08;;;;;;;12.70;7.60;;;;;;;21.05;87.27;100089.84;124267;1102;104220;-76
2023/07/07 03:34:43;;;;;;;14.38;7.80;;;;;;;21.06;87.46;100086.25;124454;1102;103820;-76
2023/07/07 03:37:15;;;;;;;16.47;8.43;;;;;;;21.10;87.65;100087.08;124273;1102;104239;-77
2023/07/07 03:39:47;;;;;;;15.93;8.30;;;;;;;21.17;87.02;100091.44;124164;1102;104376;-76
2023/07/07 03:42:19;;;;;;;14.70;7.80;;;;;;;21.17;87.25;100083.44;124328;1102;101960;-77
2023/07/07 03:44:50;;;;;;;15.83;8.27;;;;;;;21.18;86.98;100095.88;124319;1102;102029;-76
2023/07/07 03:47:21;;;;;;;16.53;8.37;;;;;;;21.18;86.65;100096.75;124240;1105;102242;-75
2023/07/07 03:49:53;;;;;;;16.30;8.07;;;;;;;21.21;86.41;100097.59;124166;1102;101942;-75
2023/07/07 03:52:24;;;;;;;19.57;8.27;;;;;;;21.22;87.52;100096.70;124320;1102;101902;-75
2023/07/07 03:54:57;;;;;;;13.77;7.87;;;;;;;21.19;87.33;100092.28;124239;1102;104207;-76
2023/07/07 03:57:28;;;;;;;12.83;7.87;;;;;;;21.21;87.26;100100.27;124359;1102;104217;-76
2023/07/07 03:59:59;;;;;;;14.27;8.00;;;;;;;21.19;87.05;100098.52;124291;1102;104171;-76
2023/07/07 04:02:31;;;;;;;15.07;8.50;;;;;;;21.19;87.47;100095.86;124331;1102;104264;-75
2023/07/07 04:05:03;;;;;;;14.43;8.33;;;;;;;21.18;87.80;100099.42;124252;1103;104352;-77
2023/07/07 04:07:34;;;;;;;13.87;8.37;;;;;;;21.21;87.87;100097.59;124432;1102;104179;-75
2023/07/07 04:10:08;;;;;;;13.33;7.70;;;;;;;21.22;88.47;100096.70;124266;1103;104169;-75
2023/07/07 04:12:39;;;;;;;15.87;8.40;;;;;;;21.24;87.81;100100.22;124449;1102;104316;-78
2023/07/07 04:15:12;;;;;;;13.67;7.60;;;;;;;21.28;87.70;100096.62;124392;1102;104326;-76
2023/07/07 04:17:42;;;;;;;;;;;;;;;21.31;87.72;100088.56;124420;1100;104233;-77
2023/07/07 04:20:14;;;;;;;12.10;7.70;;;;;;;21.34;88.09;100093.86;124439;1102;104267;-76
2023/07/07 04:22:45;;;;;;;;;;;;;;;21.34;87.04;100092.06;124358;1102;104277;-76
2023/07/07 04:25:18;;;;;;;18.60;8.50;;;;;;;21.37;87.41;100096.48;124446;1102;101871;-76
2023/07/07 04:27:52;;;;;;;14.43;7.87;;;;;;;21.41;87.20;100107.98;124444;1102;101893;-75
2023/07/07 04:30:24;;;;;;;20.08;8.93;;;;;;;21.43;88.09;100098.19;124388;1102;104175;-76
2023/07/07 04:32:55;;;;;;;17.17;8.73;;;;;;;21.46;87.41;100106.14;124421;1102;104214;-76
2023/07/07 04:35:26;;;;;;;13.47;8.27;;;;;;;21.48;87.68;100110.53;124240;1102;104392;-77
2023/07/07 04:37:58;;;;;;;17.23;8.83;;;;;;;21.50;87.46;100114.12;124387;1102;104198;-77
2023/07/07 04:40:32;;;;;;;16.63;9.13;;;;;;;21.55;87.61;100119.39;124235;1102;101865;-76
2023/07/07 04:43:03;;;;;;;17.17;8.60;;;;;;;21.60;87.72;100125.53;124240;1102;104262;-76
2023/07/07 04:45:36;;;;;;;18.10;8.70;;;;;;;21.61;87.20;100126.39;124365;1102;101965;-77
2023/07/07 04:48:08;;;;;;;20.68;9.63;;;;;;;21.64;88.18;100121.88;124181;1102;104172;-75
2023/07/07 04:50:39;;;;;;;13.30;8.17;;;;;;;21.69;87.56;100122.71;124381;1102;104617;-77
2023/07/07 04:53:10;;;;;;;19.60;8.80;;;;;;;21.73;87.22;100123.53;124175;1102;104237;-72
2023/07/07 04:55:46;;;;;;;15.90;8.87;;;;;;;21.78;88.04;100127.00;124185;1102;102122;-75
2023/07/07 04:58:17;;;;;;;15.67;8.90;;;;;;;21.84;88.16;100124.23;124159;1102;103315;-72
2023/07/07 05:00:48;;;;;;;18.75;9.70;;;;;;;21.94;88.06;100129.42;124274;1102;104428;-73
2023/07/07 05:03:20;;;;;;;15.50;8.90;;;;;;;22.01;87.84;100128.42;124291;1102;104175;-74
2023/07/07 05:05:51;;;;;;;15.63;8.87;;;;;;;22.10;87.81;100136.27;124204;1102;104695;-74
2023/07/07 05:08:22;;;;;;;19.70;9.70;;;;;;;22.18;87.74;100128.13;124197;1102;101881;-74
2023/07/07 05:10:54;;;;;;;17.90;9.10;;;;;;;22.26;87.22;100128.86;124473;1102;101962;-73
2023/07/07 05:13:25;;;;;;;19.20;9.00;;;;;;;22.36;87.17;100132.27;124684;1102;101882;-75
2023/07/07 05:16:05;;;;;;;17.80;9.37;;;;;;;22.42;87.73;100132.15;124183;1102;104089;-75
2023/07/07 05:18:38;;;;;;;14.87;9.13;;;;;;;22.50;87.47;100129.33;124242;1102;104201;-74
2023/07/07 05:21:10;;;;;;;15.47;9.23;;;;;;;22.56;87.34;100131.89;124230;1101;104165;-74
2023/07/07 05:23:42;;;;;;;20.07;9.40;;;;;;;22.64;86.86;100129.06;124623;1102;104162;-75
2023/07/07 05:26:13;;;;;;;15.60;9.20;;;;;;;22.71;87.10;100133.39;124404;1102;104188;-74
2023/07/07 05:28:45;;;;;;;14.77;8.50;;;;;;;22.81;86.61;100134.95;124673;1101;104227;-77
2023/07/07 05:31:16;;;;;;;17.60;9.20;;;;;;;22.95;87.05;100140.91;124531;1102;104252;-76
2023/07/07 05:34:14;;;;;;;16.45;8.60;;;;;;;23.07;86.48;100136.20;126218;1102;102730;-77
2023/07/07 05:37:11;;;;;;;16.77;9.47;;;;;;;23.15;86.30;100139.63;124491;1105;102050;-73
2023/07/07 05:40:15;;;;;;;16.47;9.53;;;;;;;23.26;85.56;100134.03;124309;1105;104364;-73
2023/07/07 05:42:46;;;;;;;17.40;9.50;;;;;;;23.36;85.56;100134.70;124465;1102;102247;-76
2023/07/07 05:45:18;;;;;;;18.23;9.87;;;;;;;23.36;84.99;100123.98;124599;1102;102022;-76
2023/07/07 05:47:49;;;;;;;17.87;9.80;;;;;;;23.46;85.02;100129.09;124427;1102;102013;-77
2023/07/07 05:50:28;;;;;;;19.67;9.73;;;;;;;23.53;84.79;100134.30;124338;1102;102364;-74
2023/07/07 05:53:01;;;;;;;18.17;10.10;;;;;;;23.61;84.69;100135.90;124353;1102;104335;-73
2023/07/07 05:55:35;;;;;;;16.87;9.53;;;;;;;23.71;84.50;100138.36;124319;1102;104287;-73
2023/07/07 05:58:10;;;;;;;18.73;9.70;;;;;;;23.82;84.06;100133.61;125155;1101;104185;-73
2023/07/07 06:00:41;;;;;;;17.20;9.80;;;;;;;23.90;83.53;100128.97;124363;1102;104185;-75
2023/07/07 06:03:13;;;;;;;16.93;9.53;;;;;;;23.99;83.76;100123.38;124590;1101;102483;-76
2023/07/07 06:05:44;;;;;;;17.20;10.57;;;;;;;24.09;83.62;100124.04;124427;1102;104447;-76
2023/07/07 06:08:16;;;;;;;18.90;10.60;;;;;;;24.14;82.92;100124.79;126715;1101;101814;-75
2023/07/07 06:10:51;;;;;;;18.40;9.50;;;;;;;24.23;83.30;100121.86;124750;1102;101894;-78
2023/07/07 06:13:23;;;;;;;17.50;10.23;;;;;;;24.32;83.04;100122.53;124742;1103;104091;-76
2023/07/07 06:15:56;;;;;;;17.53;10.27;;;;;;;24.39;82.51;100121.45;124541;1102;102054;-80
2023/07/07 06:18:29;;;;;;;18.93;10.60;;;;;;;24.41;81.66;100112.42;124739;1102;104188;-80
2023/07/07 06:21:01;;;;;;;19.10;10.53;;;;;;;24.45;82.11;100115.92;124878;1102;104555;-78
2023/07/07 06:23:41;;;;;;;19.37;11.50;;;;;;;24.55;81.29;100127.27;126045;1101;101935;-78
2023/07/07 06:26:29;;;;;;;20.40;11.77;;;;;;;24.60;80.68;100119.98;126708;1101;101634;-79
2023/07/07 06:29:29;;;;;;;20.50;11.23;;;;;;;24.68;80.54;100122.45;127131;1101;104085;-80
2023/07/07 06:32:15;;;;;;;18.57;11.27;;;;;;;24.74;80.58;100107.09;125524;1102;102591;-79
2023/07/07 06:34:52;;;;;;;17.50;11.30;;;;;;;24.82;79.60;100120.25;125542;1105;101771;-80
2023/07/07 06:38:10;;;;;;;;;;;;;;;;;;;;;
2023/07/07 06:40:53;;;;;;;20.00;11.53;;;;;;;24.92;79.83;100112.83;126077;1105;101941;-79
2023/07/07 06:43:26;;;;;;;21.40;12.47;;;;;;;25.04;79.02;100103.51;126569;1102;102444;-78
2023/07/07 06:46:02;;;;;;;19.67;12.40;;;;;;;25.13;78.16;100095.17;124827;1102;101968;-86
2023/07/07 06:48:41;;;;;;;23.00;11.80;;;;;;;25.23;78.42;100093.97;125278;1102;104181;-78
2023/07/07 06:51:13;;;;;;;19.70;11.50;;;;;;;25.36;77.83;100105.23;124842;1102;104115;-76
2023/07/07 06:53:48;;;;;;;18.57;12.20;;;;;;;25.47;77.20;100097.70;125227;1102;104274;-78
2023/07/07 06:56:28;;;;;;;21.40;11.57;;;;;;;25.63;77.43;100102.58;126082;1102;104193;-78
2023/07/07 06:59:03;;;;;;;17.03;11.03;;;;;;;25.79;76.32;100106.52;124464;1103;104137;-77
2023/07/07 07:01:55;;;;;;;17.70;11.50;;;;;;;25.91;76.58;100102.52;124950;1102;102216;-80
2023/07/07 07:04:47;;;;;;;17.97;10.63;;;;;;;26.01;75.18;100103.14;125411;1103;105346;-80
2023/07/07 07:07:22;;;;;;;19.07;11.33;;;;;;;26.06;75.27;100100.30;126050;1101;101807;-78
2023/07/07 07:10:06;;;;;;;20.43;12.03;;;;;;;26.07;74.81;100108.31;125461;1102;102078;-80
2023/07/07 07:12:44;;;;;;;20.67;11.30;;;;;;;26.05;73.99;100110.15;125414;1102;104166;-77
2023/07/07 07:15:32;;;;;;;17.17;11.30;;;;;;;26.04;73.43;100107.52;125709;1102;101944;-81
2023/07/07 07:18:17;;;;;;;18.67;10.83;;;;;;;26.06;73.37;100095.79;126249;1101;101693;-75
2023/07/07 07:23:39;;;;;;;20.93;11.03;;;;;;;26.28;72.82;100095.91;125221;1102;104223;-81
2023/07/07 07:26:13;;;;;;;18.20;10.90;;;;;;;26.42;71.54;100103.47;125018;1102;102516;-78
2023/07/07 07:28:51;;;;;;;17.83;10.80;;;;;;;26.54;71.85;100096.78;124693;1102;104185;-78
2023/07/07 07:31:28;;;;;;;16.27;10.70;;;;;;;26.70;71.25;100102.50;124295;1102;102024;-78
2023/07/07 07:34:26;;;;;;;19.30;10.73;;;;;;;26.83;70.08;100095.73;124098;1105;101967;-76
2023/07/07 07:37:11;;;;;;;23.53;11.70;;;;;;;27.02;70.27;100101.28;124594;1102;102242;-77
2023/07/07 07:39:47;;;;;;;18.83;10.53;;;;;;;27.17;69.58;100093.52;124220;1105;104339;-78
2023/07/07 07:43:10;;;;;;;20.40;11.50;;;;;;;27.42;69.43;100096.14;125727;1103;104243;-76
2023/07/07 07:46:08;;;;;;;;;;;;;;;27.64;69.04;100087.17;125939;1102;110691;-75
2023/07/07 07:48:54;;;;;;;21.00;10.78;;;;;;;27.80;67.87;100097.25;124841;1105;102063;-77
2023/07/07 07:51:37;;;;;;;16.80;10.63;;;;;;;27.99;67.80;100101.90;125641;1102;102134;-76
2023/07/07 07:54:19;;;;;;;18.00;10.73;;;;;;;28.14;67.06;100095.84;124452;1102;101942;-75
2023/07/07 07:56:57;;;;;;;17.40;10.80;;;;;;;28.28;66.76;100089.84;125159;1101;104185;-76
2023/07/07 07:59:35;;;;;;;19.10;10.60;;;;;;;28.43;65.00;100100.89;124455;1102;101834;-78
2023/07/07 08:02:16;;;;;;;16.30;10.47;;;;;;;28.61;65.45;100099.20;125000;1102;104172;-76
2023/07/07 08:04:53;;;;;;;17.97;10.50;;;;;;;28.81;65.15;100087.48;124243;1102;104185;-75
2023/07/07 08:07:31;;;;;;;16.27;10.30;;;;;;;29.02;64.47;100091.87;125359;1104;101832;-77
2023/07/07 08:10:04;;;;;;;17.00;10.17;;;;;;;29.22;63.62;100090.09;124687;1105;101968;-81
2023/07/07 08:12:38;;;;;;;18.77;10.87;;;;;;;29.44;62.55;100086.34;124936;1105;101958;-75
2023/07/07 08:15:15;;;;;;;17.77;10.37;;;;;;;29.44;62.03;100089.91;124159;1102;104211;-78
2023/07/07 08:17:56;;;;;;;18.10;10.33;;;;;;;29.55;61.87;100092.95;124102;1105;103776;-75
2023/07/07 08:20:30;;;;;;;16.17;10.60;;;;;;;29.60;60.57;100092.72;124814;1102;101823;-74
2023/07/07 08:23:02;;;;;;;19.40;10.20;;;;;;;29.63;59.19;100089.00;124013;1105;104208;-79
2023/07/07 08:25:35;;;;;;;20.47;9.90;;;;;;;29.63;60.04;100097.11;124252;1102;102268;-75
2023/07/07 08:28:06;;;;;;;18.57;10.43;;;;;;;29.68;59.75;100087.80;124073;1102;104191;-76
2023/07/07 08:30:40;;;;;;;16.30;9.93;;;;;;;29.84;59.99;100085.25;124081;1102;104277;-75
2023/07/07 08:33:12;;;;;;;15.53;10.20;;;;;;;30.02;59.72;100090.66;124248;1102;104280;-76
2023/07/07 08:35:57;;;;;;;16.83;9.73;;;;;;;30.14;59.03;100087.31;124135;1102;101807;-76
2023/07/07 08:38:34;;;;;;;14.33;9.57;;;;;;;30.21;57.66;100091.42;124264;1102;101865;-77
2023/07/07 08:41:06;;;;;;;16.60;10.03;;;;;;;30.26;57.33;100089.38;124247;1102;104297;-78
2023/07/07 08:43:41;;;;;;;14.85;9.48;;;;;;;30.40;57.40;100088.68;124333;1105;104245;-76
2023/07/07 08:46:27;;;;;;;14.40;9.87;;;;;;;30.52;55.93;100088.97;124271;1102;104070;-78
2023/07/07 08:49:11;;;;;;;17.03;9.83;;;;;;;30.52;56.15;100087.13;125610;1102;104233;-80
2023/07/07 08:51:50;;;;;;;17.90;10.50;;;;;;;30.60;56.08;100078.59;125906;1101;101912;-80
2023/07/07 08:54:33;;;;;;;15.95;9.55;;;;;;;30.86;56.32;100081.72;124870;1102;101825;-78
2023/07/07 08:57:13;;;;;;;17.47;9.50;;;;;;;31.02;55.77;100082.62;124365;1102;104255;-79
2023/07/07 09:00:03;;;;;;;17.13;9.97;;;;;;;31.11;55.60;100081.23;125091;1102;104245;-77
2023/07/07 09:02:59;;;;;;;15.90;9.43;;;;;;;31.14;54.99;100081.93;124922;1101;104220;-78
2023/07/07 09:05:44;;;;;;;16.27;10.30;;;;;;;31.10;54.58;100079.48;124265;1102;101877;-78
2023/07/07 09:08:30;;;;;;;22.43;11.07;;;;;;;31.04;54.25;100080.72;124212;1102;104242;-73
2023/07/07 09:11:13;;;;;;;20.23;10.10;;;;;;;31.03;54.16;100073.55;124438;1101;104217;-75
2023/07/07 09:13:51;;;;;;;16.20;10.20;;;;;;;31.00;53.41;100079.13;125664;1102;104245;-78
2023/07/07 09:16:27;;;;;;;18.13;9.93;;;;;;;30.95;53.24;100079.36;124216;1101;102058;-77
2023/07/07 09:19:05;;;;;;;15.27;10.10;;;;;;;30.87;52.73;100087.05;124562;1102;104300;-79
2023/07/07 09:21:43;;;;;;;18.87;10.50;;;;;;;30.83;52.58;100083.61;125994;1101;104217;-80
2023/07/07 09:24:23;;;;;;;16.17;9.80;;;;;;;30.85;52.86;100080.81;124371;1102;101984;-75
2023/07/07 09:37:09;;;;;;;16.17;9.30;;;;;;;30.52;51.62;100084.42;125074;1102;103061;-80
2023/07/07 09:42:46;;;;;;;14.60;9.00;;;;;;;30.35;51.50;100095.25;124688;1102;104169;-86
2023/07/07 09:48:37;;;;;;;19.40;9.77;;;;;;;30.26;52.44;100077.66;125058;1102;104256;-80
2023/07/07 09:51:25;;;;;;;16.20;9.13;;;;;;;30.44;52.59;100070.44;124644;1102;101874;-83
2023/07/07 09:54:06;;;;;;;14.73;8.30;;;;;;;30.65;52.87;100088.22;124862;1102;102077;-79
2023/07/07 09:57:01;;;;;;;;;;;;;;;;;;;;;
2023/07/07 09:59:50;;;;;;;16.77;7.93;;;;;;;30.49;51.95;100094.55;125427;1102;102550;-83
2023/07/07 10:02:26;;;;;;;15.07;7.80;;;;;;;30.58;52.18;100096.77;125770;1102;101634;-85
2023/07/07 10:05:09;;;;;;;12.73;7.10;;;;;;;30.69;51.73;100091.63;125909;1101;102234;-81
2023/07/07 10:07:43;;;;;;;14.67;7.37;;;;;;;30.71;50.91;100089.70;124265;1102;104242;-79
2023/07/07 10:10:15;;;;;;;14.80;7.87;;;;;;;30.66;50.62;100102.63;124963;1102;104281;-79
2023/07/07 10:12:48;;;;;;;13.62;7.45;;;;;;;30.47;50.07;100109.03;124765;1102;104182;-77
2023/07/07 10:15:44;;;;;;;13.10;7.80;;;;;;;30.32;50.26;100104.39;124300;1102;104182;-75
2023/07/07 10:18:20;;;;;;;13.47;7.90;;;;;;;30.24;50.85;100112.05;124334;1101;104195;-78
2023/07/07 10:20:56;;;;;;;13.97;7.97;;;;;;;30.21;51.58;100128.45;124625;1102;103762;-76
2023/07/07 10:23:30;;;;;;;13.83;7.57;;;;;;;30.11;52.17;100134.33;124356;1102;104217;-77
2023/07/07 10:26:10;;;;;;;16.10;8.03;;;;;;;29.96;52.54;100115.31;125039;1102;102314;-78
2023/07/07 10:28:41;;;;;;;16.23;8.40;;;;;;;29.65;53.05;100131.20;124420;1102;104178;-77
2023/07/07 10:31:13;;;;;;;14.67;8.13;;;;;;;29.42;53.76;100128.77;124508;1103;102437;-79
2023/07/07 10:33:51;;;;;;;17.97;8.63;;;;;;;29.28;53.96;100130.33;125634;1099;102576;-86
2023/07/07 10:36:29;;;;;;;15.53;8.37;;;;;;;29.31;54.25;100126.58;125420;1102;104173;-81
2023/07/07 10:39:09;;;;;;;16.50;9.80;;;;;;;29.51;54.14;100109.39;124984;1102;104065;-83
2023/07/07 10:41:56;;;;;;;18.50;10.20;;;;;;;29.45;54.14;100106.99;125815;1102;102219;-81
2023/07/07 10:44:35;;;;;;;16.90;9.20;;;;;;;29.42;54.29;100117.95;125555;1102;104169;-84
2023/07/07 10:47:13;;;;;;;20.03;10.43;;;;;;;29.38;54.29;100118.09;125588;1102;104213;-81
2023/07/07 10:50:05;;;;;;;21.67;9.60;;;;;;;29.17;54.26;100109.19;125565;1101;104221;-84
2023/07/07 10:53:09;;;;;;;16.47;9.47;;;;;;;29.04;54.67;100108.88;126181;1102;101913;-79
2023/07/07 10:56:24;;;;;;;18.10;8.70;;;;;;;28.83;54.85;100104.51;126003;1101;101922;-82
2023/07/07 10:59:33;;;;;;;13.23;8.40;;;;;;;28.63;55.00;100125.19;125551;1102;104268;-81
2023/07/07 11:02:43;;;;;;;13.73;8.20;;;;;;;28.36;55.55;100127.27;125836;1100;102264;-80
2023/07/07 11:05:39;;;;;;;17.30;8.90;;;;;;;27.93;55.78;100131.78;126186;1101;102084;-79
2023/07/07 11:08:31;;;;;;;16.30;8.53;;;;;;;27.71;56.40;100112.94;125657;1100;103336;-82
2023/07/07 11:11:39;;;;;;;;;;;;;;;;;;;;;
2023/07/07 11:14:33;;;;;;;14.43;8.27;;;;;;;27.30;57.14;100119.05;124877;1102;104278;-81
2023/07/07 11:20:23;;;;;;;17.57;9.07;;;;;;;27.15;57.72;100120.52;124894;1102;104175;-79
2023/07/07 11:23:17;;;;;;;13.83;8.17;;;;;;;27.04;58.14;100136.22;125898;1100;101881;-82
2023/07/07 11:26:19;;;;;;;12.83;8.57;;;;;;;26.90;58.63;100121.45;125121;1102;101912;-82
2023/07/07 11:29:33;;;;;;;15.47;8.57;;;;;;;26.90;58.73;100128.66;126246;1101;102052;-81
2023/07/07 11:32:19;;;;;;;;;;;;;;;26.79;59.37;100118.30;127124;1100;117840;-81
2023/07/07 11:35:37;;;;;;;15.73;8.10;;;;;;;26.73;59.02;100114.02;125304;1102;101958;-81
2023/07/07 11:39:05;;;;;;;15.43;8.57;;;;;;;26.61;59.59;100094.73;125945;1101;102012;-81
2023/07/07 11:42:05;;;;;;;15.57;8.53;;;;;;;26.53;59.71;100093.19;125246;1102;101949;-82
2023/07/07 11:48:48;;;;;;;17.17;8.93;;;;;;;26.43;59.50;100097.17;126251;1102;104582;-84
2023/07/07 11:51:39;;;;;;;16.87;9.85;;;;;;;26.51;59.90;100086.13;125416;1102;101932;-80
2023/07/07 11:54:35;;;;;;;18.63;9.13;;;;;;;26.67;60.33;100083.77;125174;1100;104187;-80
2023/07/07 11:57:38;;;;;;;20.33;9.77;;;;;;;26.77;60.17;100066.36;125807;1102;102272;-79
2023/07/07 12:00:52;;;;;;;19.47;10.40;;;;;;;26.92;59.98;100064.00;125702;1102;101911;-81
2023/07/07 12:03:43;;;;;;;18.37;10.67;;;;;;;26.94;60.04;100060.29;126023;1101;102287;-84
2023/07/07 12:06:33;;;;;;;18.03;11.17;;;;;;;26.99;60.43;100049.34;126219;1100;101961;-81
2023/07/07 12:09:30;;;;;;;19.17;10.67;;;;;;;26.97;61.05;100051.23;125635;1102;102093;-80
2023/07/07 12:12:13;;;;;;;19.10;11.55;;;;;;;26.93;60.94;100053.17;124313;1101;104284;-77
2023/07/07 12:14:51;;;;;;;17.23;11.07;;;;;;;26.96;61.09;100049.46;124229;1102;101844;-76
2023/07/07 12:17:28;;;;;;;17.07;10.67;;;;;;;26.96;61.51;100046.77;125665;1100;102082;-78
2023/07/07 12:20:19;;;;;;;20.63;11.50;;;;;;;27.05;61.42;100036.53;124343;1102;104441;-82
2023/07/07 12:23:00;;;;;;;14.83;9.70;;;;;;;27.20;61.54;100047.63;125489;1102;104118;-80
2023/07/07 12:25:34;;;;;;;19.30;11.33;;;;;;;27.33;61.35;100026.47;125477;1102;101831;-82